createdAt,value
2022-12-14T00:00:02.220Z,-2.94
2022-12-14T00:03:10.181Z,-2.94
2022-12-14T00:05:58.026Z,-3.00
2022-12-14T00:08:47.959Z,-3.00
2022-12-14T00:11:35.736Z,-3.06
2022-12-14T00:14:23.872Z,-3.13
2022-12-14T00:17:11.494Z,-3.13
2022-12-14T00:19:59.245Z,-3.19
2022-12-14T00:22:47.046Z,-3.25
2022-12-14T00:25:34.974Z,-3.31
2022-12-14T00:28:26.567Z,-3.31
2022-12-14T00:31:15.460Z,-3.31
2022-12-14T00:34:03.156Z,-3.31
2022-12-14T00:36:51.048Z,-3.31
2022-12-14T00:39:38.811Z,-3.31
2022-12-14T00:42:26.244Z,-3.25
2022-12-14T00:45:13.904Z,-3.31
2022-12-14T00:48:02.459Z,-3.31
2022-12-14T00:50:52.046Z,-3.44
2022-12-14T00:53:41.020Z,-3.44
2022-12-14T00:56:29.258Z,-3.50
2022-12-14T00:59:21.768Z,-3.56
2022-12-14T01:02:13.934Z,-3.75
2022-12-14T01:05:01.663Z,-3.81
2022-12-14T01:07:49.176Z,-4.00
2022-12-14T01:10:40.596Z,-4.06
2022-12-14T01:13:28.813Z,-4.13
2022-12-14T01:16:17.717Z,-4.19
2022-12-14T01:19:06.028Z,-4.31
2022-12-14T01:21:53.912Z,-4.56
2022-12-14T01:24:44.618Z,-4.69
2022-12-14T01:27:32.487Z,-4.81
2022-12-14T01:30:20.386Z,-4.88
2022-12-14T01:33:08.263Z,-5.00
2022-12-14T01:35:55.680Z,-5.13
2022-12-14T01:38:44.515Z,-5.13
2022-12-14T01:42:01.594Z,-5.19
2022-12-14T01:44:57.078Z,-5.19
2022-12-14T01:47:51.870Z,-5.31
2022-12-14T01:50:44.012Z,-5.50
2022-12-14T01:53:31.809Z,-5.56
2022-12-14T01:56:19.836Z,-5.69
2022-12-14T01:59:16.399Z,-5.75
2022-12-14T02:02:08.090Z,-5.81
2022-12-14T02:05:01.764Z,-5.88
2022-12-14T02:07:52.992Z,-5.94
2022-12-14T02:10:41.422Z,-6.00
2022-12-14T02:13:35.542Z,-6.06
2022-12-14T02:16:23.596Z,-6.06
2022-12-14T02:19:11.165Z,-6.13
2022-12-14T02:22:35.754Z,-6.19
2022-12-14T02:25:58.469Z,-6.25
2022-12-14T02:29:17.128Z,-6.31
2022-12-14T02:32:36.667Z,-6.38
2022-12-14T02:35:46.948Z,-6.50
2022-12-14T02:38:49.800Z,-6.56
2022-12-14T02:41:49.294Z,-6.63
2022-12-14T02:44:39.981Z,-6.69
2022-12-14T02:48:02.900Z,-6.75
2022-12-14T02:51:25.002Z,-6.81
2022-12-14T02:54:32.385Z,-6.88
2022-12-14T02:57:27.699Z,-6.88
2022-12-14T03:00:16.009Z,-6.88
2022-12-14T03:03:06.023Z,-6.94
2022-12-14T03:06:14.926Z,-6.94
2022-12-14T03:09:17.652Z,-7.00
2022-12-14T03:12:11.633Z,-7.06
2022-12-14T03:15:00.787Z,-7.06
2022-12-14T03:17:53.888Z,-7.13
2022-12-14T03:20:45.017Z,-7.19
2022-12-14T03:23:37.535Z,-7.19
2022-12-14T03:26:41.701Z,-7.19
2022-12-14T03:29:42.063Z,-7.19
2022-12-14T03:32:32.569Z,-7.19
2022-12-14T03:35:29.184Z,-7.25
2022-12-14T03:38:27.163Z,-7.25
2022-12-14T03:41:18.594Z,-7.31
2022-12-14T03:44:15.696Z,-7.31
2022-12-14T03:47:15.319Z,-7.38
2022-12-14T03:50:17.599Z,-7.38
2022-12-14T03:53:34.167Z,-7.44
2022-12-14T03:56:24.554Z,-7.50
2022-12-14T03:59:39.906Z,-7.50
2022-12-14T04:02:41.216Z,-7.56
2022-12-14T04:05:41.714Z,-7.56
2022-12-14T04:08:53.141Z,-7.56
2022-12-14T04:12:08.322Z,-7.63
2022-12-14T04:15:23.229Z,-7.63
2022-12-14T04:18:37.501Z,-7.63
2022-12-14T04:21:59.264Z,-7.69
2022-12-14T04:25:15.479Z,-7.75
2022-12-14T04:28:31.929Z,-7.75
2022-12-14T04:31:23.866Z,-7.75
2022-12-14T04:34:15.524Z,-7.75
2022-12-14T04:37:10.802Z,-7.81
2022-12-14T04:40:36.483Z,-7.88
2022-12-14T04:43:30.253Z,-7.88
2022-12-14T04:46:23.513Z,-7.88
2022-12-14T04:49:16.898Z,-7.94
2022-12-14T04:52:23.361Z,-7.94
2022-12-14T04:55:56.968Z,-7.94
2022-12-14T04:58:44.628Z,-8.00
2022-12-14T05:01:41.112Z,-8.00
2022-12-14T05:05:19.075Z,-8.06
2022-12-14T05:08:45.945Z,-8.06
2022-12-14T05:15:02.896Z,-8.06
2022-12-14T05:17:50.923Z,-8.13
2022-12-14T05:20:38.367Z,-8.13
2022-12-14T05:23:26.019Z,-8.13
2022-12-14T05:26:14.001Z,-8.13
2022-12-14T05:29:01.635Z,-8.13
2022-12-14T05:31:51.000Z,-8.13
2022-12-14T05:34:39.055Z,-8.13
2022-12-14T05:37:26.699Z,-8.13
2022-12-14T05:40:14.656Z,-8.13
2022-12-14T05:43:12.325Z,-8.13
2022-12-14T05:46:04.962Z,-8.13
2022-12-14T05:48:52.700Z,-8.13
2022-12-14T05:51:40.703Z,-8.13
2022-12-14T05:54:28.478Z,-8.13
2022-12-14T05:57:16.266Z,-8.19
2022-12-14T06:00:06.547Z,-8.19
2022-12-14T06:02:55.678Z,-8.19
2022-12-14T06:05:43.230Z,-8.19
2022-12-14T06:08:33.943Z,-8.19
2022-12-14T06:11:23.802Z,-8.19
2022-12-14T06:14:12.647Z,-8.19
2022-12-14T06:17:00.414Z,-8.25
2022-12-14T06:19:50.044Z,-8.25
2022-12-14T06:22:42.785Z,-8.25
2022-12-14T06:25:33.264Z,-8.25
2022-12-14T06:28:20.850Z,-8.25
2022-12-14T06:31:18.134Z,-8.25
2022-12-14T06:34:06.417Z,-8.19
2022-12-14T06:36:54.236Z,-8.19
2022-12-14T06:39:42.017Z,-8.19
2022-12-14T06:42:31.455Z,-8.19
2022-12-14T06:45:18.867Z,-8.19
2022-12-14T06:48:07.039Z,-8.19
2022-12-14T06:51:04.525Z,-8.19
2022-12-14T06:53:57.523Z,-8.25
2022-12-14T06:56:47.404Z,-8.25
2022-12-14T06:59:35.262Z,-8.25
2022-12-14T07:02:22.968Z,-8.31
2022-12-14T07:05:10.855Z,-8.31
2022-12-14T07:07:58.353Z,-8.25
2022-12-14T07:10:46.044Z,-8.25
2022-12-14T07:13:33.808Z,-8.19
2022-12-14T07:16:26.561Z,-8.13
2022-12-14T07:19:14.313Z,-8.13
2022-12-14T07:22:04.314Z,-8.06
2022-12-14T07:24:52.040Z,-8.00
2022-12-14T07:27:40.001Z,-7.94
2022-12-14T07:30:27.586Z,-7.94
2022-12-14T07:33:15.215Z,-7.81
2022-12-14T07:36:10.715Z,-7.75
2022-12-14T07:38:58.396Z,-7.69
2022-12-14T07:41:49.019Z,-7.56
2022-12-14T07:44:41.567Z,-7.50
2022-12-14T07:47:31.923Z,-7.38
2022-12-14T07:50:19.394Z,-7.25
2022-12-14T07:53:06.990Z,-7.13
2022-12-14T07:55:54.943Z,-7.00
2022-12-14T07:58:42.510Z,-6.88
2022-12-14T08:01:36.069Z,-6.81
2022-12-14T08:04:24.100Z,-6.69
2022-12-14T08:07:11.922Z,-6.50
2022-12-14T08:09:59.721Z,-6.38
2022-12-14T08:12:50.442Z,-6.19
2022-12-14T08:15:38.681Z,-6.06
2022-12-14T08:18:26.380Z,-5.81
2022-12-14T08:21:20.991Z,-5.38
2022-12-14T08:24:12.433Z,-3.38
2022-12-14T08:26:59.844Z,1.38
2022-12-14T08:29:47.244Z,6.13
2022-12-14T08:32:35.056Z,8.25
2022-12-14T08:35:22.993Z,10.06
2022-12-14T08:38:10.539Z,10.88
2022-12-14T08:41:06.236Z,11.31
2022-12-14T08:44:00.817Z,12.50
2022-12-14T08:46:48.582Z,13.81
2022-12-14T08:49:36.332Z,14.69
2022-12-14T08:52:23.703Z,13.19
2022-12-14T08:55:11.564Z,8.19
2022-12-14T08:57:59.564Z,8.00
2022-12-14T09:00:47.010Z,6.13
2022-12-14T09:03:35.519Z,7.38
2022-12-14T09:06:29.348Z,10.94
2022-12-14T09:09:17.166Z,12.06
2022-12-14T09:12:07.658Z,14.13
2022-12-14T09:14:55.331Z,13.94
2022-12-14T09:17:42.936Z,13.13
2022-12-14T09:20:30.395Z,14.38
2022-12-14T09:23:18.107Z,13.63
2022-12-14T09:26:27.604Z,12.31
2022-12-14T09:29:17.675Z,13.75
2022-12-14T09:32:05.502Z,13.88
2022-12-14T09:34:53.535Z,13.38
2022-12-14T09:37:41.384Z,12.31
2022-12-14T09:40:31.585Z,12.94
2022-12-14T09:43:44.067Z,11.19
2022-12-14T09:47:19.333Z,10.94
2022-12-14T09:50:18.421Z,10.06
2022-12-14T09:53:13.171Z,11.19
2022-12-14T09:56:00.988Z,12.81
2022-12-14T09:58:59.550Z,10.31
2022-12-14T10:02:32.579Z,9.88
2022-12-14T10:05:57.226Z,9.69
2022-12-14T10:08:59.703Z,11.44
2022-12-14T10:12:00.406Z,11.00
2022-12-14T10:15:08.981Z,12.69
2022-12-14T10:19:02.951Z,9.25
2022-12-14T10:22:12.490Z,8.94
2022-12-14T10:25:25.057Z,8.81
2022-12-14T10:28:30.794Z,9.81
2022-12-14T10:31:41.152Z,5.63
2022-12-14T10:34:32.562Z,1.00
2022-12-14T10:37:27.051Z,-0.50
2022-12-14T10:40:34.701Z,-1.69
2022-12-14T10:43:42.657Z,-2.88
2022-12-14T10:47:01.310Z,-3.44
2022-12-14T10:50:22.688Z,-3.75
2022-12-14T10:53:19.828Z,-4.38
2022-12-14T10:56:19.173Z,-4.25
2022-12-14T10:59:22.260Z,-4.44
2022-12-14T11:02:21.446Z,-4.19
2022-12-14T11:05:45.454Z,-4.06
2022-12-14T11:08:48.092Z,-4.13
2022-12-14T11:11:36.365Z,-4.06
2022-12-14T11:14:24.751Z,-4.25
2022-12-14T11:17:43.479Z,-4.38
2022-12-14T11:20:33.666Z,-3.75
2022-12-14T11:23:30.612Z,-3.44
2022-12-14T11:26:38.054Z,-3.56
2022-12-14T11:29:34.291Z,-3.81
2022-12-14T11:32:25.708Z,-3.56
2022-12-14T11:35:19.546Z,-3.38
2022-12-14T11:38:15.814Z,-3.94
2022-12-14T11:41:10.724Z,-3.69
2022-12-14T11:44:16.255Z,-3.25
2022-12-14T11:47:14.148Z,-2.81
2022-12-14T11:50:01.913Z,-3.06
2022-12-14T11:52:49.403Z,-3.19
2022-12-14T11:55:40.750Z,-3.19
2022-12-14T11:58:34.067Z,-3.50
2022-12-14T12:01:26.820Z,-3.94
2022-12-14T12:04:17.583Z,-3.88
2022-12-14T12:07:55.010Z,-2.56
2022-12-14T12:10:50.162Z,-3.06
2022-12-14T12:13:42.384Z,-2.88
2022-12-14T12:16:32.962Z,-2.81
2022-12-14T12:19:34.958Z,-2.94
2022-12-14T12:22:22.626Z,-2.69
2022-12-14T12:25:36.802Z,-3.00
2022-12-14T12:28:36.530Z,-3.06
2022-12-14T12:31:35.301Z,-3.50
2022-12-14T12:35:12.471Z,-4.00
2022-12-14T12:38:37.291Z,-4.25
2022-12-14T12:41:57.153Z,-4.56
2022-12-14T12:44:55.553Z,-4.69
2022-12-14T12:48:13.427Z,-4.88
2022-12-14T12:51:06.349Z,-5.00
2022-12-14T12:54:08.893Z,-5.00
2022-12-14T12:57:00.456Z,-5.00
2022-12-14T12:59:52.746Z,-5.00
2022-12-14T13:02:50.366Z,-5.06
2022-12-14T13:05:46.773Z,-5.06
2022-12-14T13:08:41.120Z,-5.13
2022-12-14T13:11:35.511Z,-5.25
2022-12-14T13:14:43.149Z,-5.44
2022-12-14T13:17:45.766Z,-5.50
2022-12-14T13:20:37.093Z,-5.50
2022-12-14T13:23:45.431Z,-5.56
2022-12-14T13:27:17.110Z,-5.63
2022-12-14T13:30:43.483Z,-5.75
2022-12-14T13:33:58.943Z,-5.81
2022-12-14T13:37:10.457Z,-5.88
2022-12-14T13:40:23.566Z,-5.94
2022-12-14T13:43:56.578Z,-6.00
2022-12-14T13:46:44.455Z,-6.06
2022-12-14T13:49:33.553Z,-6.13
2022-12-14T13:52:38.780Z,-6.19
2022-12-14T13:55:29.441Z,-6.25
2022-12-14T13:58:42.647Z,-6.31
2022-12-14T14:01:48.981Z,-6.38
2022-12-14T14:04:36.611Z,-6.38
2022-12-14T14:07:24.360Z,-6.38
2022-12-14T14:10:28.551Z,-6.44
2022-12-14T14:13:28.227Z,-6.50
2022-12-14T14:16:37.660Z,-6.56
2022-12-14T14:19:28.670Z,-6.63
2022-12-14T14:22:24.177Z,-6.63
2022-12-14T14:25:34.430Z,-6.69
2022-12-14T14:28:30.179Z,-6.75
2022-12-14T14:31:17.968Z,-6.75
2022-12-14T14:34:05.785Z,-6.81
2022-12-14T14:36:54.575Z,-6.88
2022-12-14T14:40:04.849Z,-6.88
2022-12-14T14:43:06.864Z,-6.88
2022-12-14T14:46:01.415Z,-6.88
2022-12-14T14:48:54.769Z,-6.94
2022-12-14T14:51:42.887Z,-7.00
2022-12-14T14:55:07.030Z,-7.06
2022-12-14T14:58:05.588Z,-7.06
2022-12-14T15:01:03.005Z,-7.13
2022-12-14T15:04:15.698Z,-7.13
2022-12-14T15:07:15.429Z,-7.13
2022-12-14T15:10:31.165Z,-7.19
2022-12-14T15:13:25.102Z,-7.19
2022-12-14T15:16:33.686Z,-7.19
2022-12-14T15:19:33.615Z,-7.25
2022-12-14T15:22:26.266Z,-7.25
2022-12-14T15:25:29.720Z,-7.25
2022-12-14T15:28:23.064Z,-7.25
2022-12-14T15:31:11.010Z,-7.25
2022-12-14T15:34:00.293Z,-7.31
2022-12-14T15:36:48.980Z,-7.38
2022-12-14T15:39:40.305Z,-7.38
2022-12-14T15:42:28.330Z,-7.38
2022-12-14T15:45:25.457Z,-7.44
2022-12-14T15:48:36.426Z,-7.44
2022-12-14T15:51:33.029Z,-7.50
2022-12-14T15:54:24.960Z,-7.50
2022-12-14T15:57:20.033Z,-7.56
2022-12-14T16:00:11.689Z,-7.56
2022-12-14T16:03:01.496Z,-7.56
2022-12-14T16:05:49.986Z,-7.56
2022-12-14T16:08:47.949Z,-7.50
2022-12-14T16:11:46.839Z,-7.50
2022-12-14T16:14:54.779Z,-7.50
2022-12-14T16:17:44.593Z,-7.50
2022-12-14T16:20:38.444Z,-7.50
2022-12-14T16:23:40.454Z,-7.56
2022-12-14T16:26:38.639Z,-7.56
2022-12-14T16:29:34.021Z,-7.63
2022-12-14T16:32:23.469Z,-7.63
2022-12-14T16:35:33.054Z,-7.63
2022-12-14T16:38:20.946Z,-7.63
2022-12-14T16:41:09.598Z,-7.63
2022-12-14T16:44:00.681Z,-7.63
2022-12-14T16:47:03.132Z,-7.63
2022-12-14T16:49:52.097Z,-7.63
2022-12-14T16:52:40.802Z,-7.69
2022-12-14T16:55:29.057Z,-7.69
2022-12-14T16:58:18.694Z,-7.69
2022-12-14T17:01:09.426Z,-7.75
2022-12-14T17:04:06.952Z,-7.75
2022-12-14T17:06:57.055Z,-7.75
2022-12-14T17:09:45.382Z,-7.75
2022-12-14T17:12:33.448Z,-7.81
2022-12-14T17:15:24.945Z,-7.81
2022-12-14T17:18:13.917Z,-7.81
2022-12-14T17:21:02.883Z,-7.81
2022-12-14T17:23:51.470Z,-7.81
2022-12-14T17:26:39.411Z,-7.81
2022-12-14T17:29:30.260Z,-7.88
2022-12-14T17:32:19.245Z,-7.88
2022-12-14T17:35:15.494Z,-7.88
2022-12-14T17:38:03.310Z,-7.88
2022-12-14T17:40:54.178Z,-7.94
2022-12-14T17:43:49.887Z,-8.00
2022-12-14T17:46:43.919Z,-8.00
2022-12-14T17:49:35.595Z,-8.06
2022-12-14T17:52:30.444Z,-8.06
2022-12-14T17:55:25.583Z,-8.06
2022-12-14T17:58:14.104Z,-8.06
2022-12-14T18:01:03.606Z,-8.13
2022-12-14T18:03:53.042Z,-8.13
2022-12-14T18:06:41.701Z,-8.13
2022-12-14T18:09:29.589Z,-8.13
2022-12-14T18:12:25.264Z,-8.19
2022-12-14T18:15:34.965Z,-8.19
2022-12-14T18:18:27.894Z,-8.19
2022-12-14T18:21:28.822Z,-8.19
2022-12-14T18:24:22.696Z,-8.25
2022-12-14T18:27:13.839Z,-8.25
2022-12-14T18:30:01.836Z,-8.25
2022-12-14T18:32:50.404Z,-8.25
2022-12-14T18:35:38.250Z,-8.25
2022-12-14T18:38:26.894Z,-8.31
2022-12-14T18:41:21.089Z,-8.38
2022-12-14T18:44:11.319Z,-8.38
2022-12-14T18:47:14.704Z,-8.44
2022-12-14T18:50:09.817Z,-8.50
2022-12-14T18:53:00.482Z,-8.50
2022-12-14T18:55:49.737Z,-8.50
2022-12-14T18:58:40.522Z,-8.56
2022-12-14T19:01:28.218Z,-8.56
2022-12-14T19:04:16.035Z,-8.56
2022-12-14T19:07:04.279Z,-8.56
2022-12-14T19:09:52.063Z,-8.56
2022-12-14T19:12:39.830Z,-8.56
2022-12-14T19:15:34.082Z,-8.63
2022-12-14T19:18:22.034Z,-8.63
2022-12-14T19:21:10.152Z,-8.63
2022-12-14T19:23:59.710Z,-8.63
2022-12-14T19:26:49.524Z,-8.69
2022-12-14T19:29:37.710Z,-8.75
2022-12-14T19:32:26.220Z,-8.75
2022-12-14T19:35:16.007Z,-8.75
2022-12-14T19:38:06.685Z,-8.75
2022-12-14T19:41:06.319Z,-8.75
2022-12-14T19:43:58.072Z,-8.81
2022-12-14T19:46:45.804Z,-8.81
2022-12-14T19:49:34.030Z,-8.81
2022-12-14T19:52:29.528Z,-8.81
2022-12-14T19:55:17.773Z,-8.81
2022-12-14T19:58:05.676Z,-8.88
2022-12-14T20:00:53.542Z,-8.88
2022-12-14T20:03:42.088Z,-8.88
2022-12-14T20:06:30.073Z,-8.81
2022-12-14T20:09:18.932Z,-8.81
2022-12-14T20:12:10.389Z,-8.75
2022-12-14T20:14:58.384Z,-8.75
2022-12-14T20:17:46.155Z,-8.75
2022-12-14T20:20:34.542Z,-8.75
2022-12-14T20:23:22.158Z,-8.75
2022-12-14T20:26:21.022Z,-8.75
2022-12-14T20:29:08.969Z,-8.81
2022-12-14T20:31:56.924Z,-8.81
2022-12-14T20:34:45.042Z,-8.81
2022-12-14T20:37:32.863Z,-8.81
2022-12-14T20:40:20.658Z,-8.88
2022-12-14T20:43:08.155Z,-8.88
2022-12-14T20:45:55.944Z,-8.88
2022-12-14T20:48:47.505Z,-8.94
2022-12-14T20:51:38.732Z,-8.94
2022-12-14T20:54:27.950Z,-8.94
2022-12-14T20:57:15.863Z,-9.00
2022-12-14T21:00:06.667Z,-9.00
2022-12-14T21:02:54.722Z,-9.06
2022-12-14T21:05:43.433Z,-9.06
2022-12-14T21:08:31.856Z,-9.13
2022-12-14T21:11:38.582Z,-9.13
2022-12-14T21:14:36.246Z,-9.13
2022-12-14T21:17:28.804Z,-9.06
2022-12-14T21:20:16.537Z,-9.06
2022-12-14T21:23:04.318Z,-9.06
2022-12-14T21:25:52.109Z,-9.06
2022-12-14T21:28:39.647Z,-9.06
2022-12-14T21:31:27.423Z,-9.06
2022-12-14T21:34:18.668Z,-9.06
2022-12-14T21:37:06.267Z,-9.13
2022-12-14T21:39:55.600Z,-9.06
2022-12-14T21:42:43.297Z,-9.13
2022-12-14T21:45:30.984Z,-9.13
2022-12-14T21:48:18.998Z,-9.06
2022-12-14T21:51:08.959Z,-9.06
2022-12-14T21:53:59.827Z,-9.06
2022-12-14T21:57:06.020Z,-9.13
2022-12-14T21:59:53.748Z,-9.13
2022-12-14T22:02:42.722Z,-9.13
2022-12-14T22:05:30.752Z,-9.06
2022-12-14T22:08:19.085Z,-9.06
2022-12-14T22:11:06.578Z,-9.00
2022-12-14T22:13:54.569Z,-8.88
2022-12-14T22:16:43.267Z,-8.81
2022-12-14T22:19:31.709Z,-8.81
2022-12-14T22:22:19.606Z,-8.81
2022-12-14T22:25:08.192Z,-8.81
2022-12-14T22:27:56.007Z,-8.81
2022-12-14T22:30:43.941Z,-8.88
2022-12-14T22:33:32.417Z,-8.94
2022-12-14T22:36:23.346Z,-9.00
2022-12-14T22:39:11.102Z,-9.00
2022-12-14T22:41:58.704Z,-8.94
2022-12-14T22:44:48.958Z,-8.94
2022-12-14T22:47:36.284Z,-8.94
2022-12-14T22:50:24.176Z,-9.00
2022-12-14T22:53:13.057Z,-9.00
2022-12-14T22:56:38.647Z,-9.00
2022-12-14T22:59:41.941Z,-8.94
2022-12-14T23:02:30.801Z,-8.94
2022-12-14T23:05:19.008Z,-8.94
2022-12-14T23:08:06.794Z,-8.94
2022-12-14T23:11:13.183Z,-8.94
2022-12-14T23:14:19.679Z,-8.94
2022-12-14T23:17:26.295Z,-9.00
2022-12-14T23:20:32.595Z,-9.00
2022-12-14T23:23:39.197Z,-9.00
2022-12-14T23:26:46.370Z,-9.00
2022-12-14T23:29:52.609Z,-9.00
2022-12-14T23:32:59.383Z,-9.00
2022-12-14T23:36:05.358Z,-9.00
2022-12-14T23:39:11.346Z,-8.94
2022-12-14T23:42:17.622Z,-9.00
2022-12-14T23:45:25.277Z,-8.94
2022-12-14T23:48:32.674Z,-8.94
2022-12-14T23:51:39.057Z,-8.88
2022-12-14T23:54:45.401Z,-8.88
2022-12-14T23:57:51.882Z,-8.88
